x

Halibut Bank (46146) Wave Buoy

6:00 - Mon 24th Apr 2017 All times are PDT. -7 hours from GMT.

  • Sig Wave height 1.3ft
  • Peak Period 3s
  • Wind
    13mph
  • Sea Temp 52°f
  • Aire Temp 53°f
  • Sea Pressure 1007.9mb
  • Halibut Bank
  • Halibut Bank

More Historic Weather Station data

Upgrade to MSW Pro to gain access to the past 30 days of data for over 8000 Wavebouys and Weather Stations around the globe.

Join Pro

Comparision Forecast

View Surf forecast
   
lun 04/24 6:00 1.3ft 3s 13
mph
1007.9mb 52f 53f
5:00 1.3ft 3s 13 16 mph 1007.8mb 51f 53f
4:00 1ft 3s 13 16 mph 1008.1mb 51f 52f
3:00 1ft 3s 13 16 mph 1008.4mb 52f 51f
2:00 0.3ft 2s 11 13 mph 1008.6mb 53f 50f
1:00 0.3ft 3s 9 11 mph 1008.6mb 52f 49f
12:00 0.3ft 7s 4
mph
1008.8mb 53f 49f
11:00 0.7ft 2s  -  2 mph 1008.6mb 52f 51f
10:00 0.7ft 2s 4
mph
1008.3mb 51f 49f
9:00 0.7ft 3s 4 7 mph 1008mb 51f 49f
8:00 1ft 3s 7 9 mph 1007.6mb 51f 48f
7:00 1ft 3s 11 13 mph 1007.3mb 50f 48f
6:00 1ft 3s 13 16 mph 1007mb 51f 47f
5:00 1.3ft 3s 13 18 mph 1007mb 51f 47f
4:00 1.3ft 3s 13 16 mph 1007mb 51f 47f
3:00 1.3ft 3s 13 18 mph 1007.1mb 51f 47f
2:00 1.3ft 3s 13 16 mph 1007.3mb 51f 49f
1:00 1ft 3s 13 16 mph 1007.4mb 51f 49f
12:00 1.3ft 3s 13 16 mph 1007.5mb 51f 50f
dom 04/23 11:00 1.6ft 3s 13 18 mph 1007.6mb 51f 50f
10:00 1.6ft 3s 18 20 mph 1007.8mb 51f 50f
9:00 2ft 3s 16 18 mph 1007.6mb 51f 50f
8:00 2ft 3s 18 22 mph 1007.3mb 51f 50f
7:00 1.6ft 3s 20 22 mph 1007.5mb 51f 50f
6:00 1.3ft 3s 16 18 mph 1008mb 51f 50f
5:00 1.3ft 3s 16 18 mph 1008.2mb 51f 51f
4:00 1ft 3s 13 18 mph 1008.3mb 51f 52f
3:00 1.3ft 3s 11 13 mph 1008.9mb 51f 52f
2:00 1.6ft 3s 13 16 mph 1009.6mb 51f 51f
1:00 2ft 3s 16 20 mph 1010.1mb 51f 51f
12:00 2ft 4s 18
mph
1010.7mb 51f 51f
11:00 2ft 3s 16 20 mph 1011.2mb 51f 50f
10:00 1.6ft 3s 18 20 mph 1011.3mb 51f 50f
9:00 1.6ft 3s 18 22 mph 1011.2mb 51f 50f
8:00 1.3ft 3s 16 20 mph 1011.4mb 50f 50f
7:00 1.3ft 3s 16 18 mph 1011.5mb 51f 50f
6:00 1.3ft 3s 18 20 mph 1011.4mb 50f 50f
5:00 1.3ft 2s 18 22 mph 1011.6mb 50f 50f
4:00 1ft 2s 16 18 mph 1011.8mb 50f 50f
3:00 1ft 3s 16 18 mph 1012.2mb 51f 50f
2:00 1.3ft 3s 16 18 mph 1012.4mb 51f 50f
1:00 1.6ft 3s 18 20 mph 1012.6mb 51f 50f
12:00 2ft 4s 16 18 mph 1012.4mb 51f 51f
sáb 04/22 11:00 2.5ft 4s 16 20 mph 1012mb 51f 52f
10:00 2ft 4s 13
mph
1011.9mb 51f 52f
9:00 2ft 4s 16 20 mph 1011.3mb 51f 53f
8:00 2.5ft 3s 18 20 mph 1010.6mb 51f 53f
7:00 2.5ft 4s 18 22 mph 1010.1mb 51f 52f
6:00 2.5ft 3s 20 25 mph 1009.8mb 52f 53f
5:00 2ft 3s 22 29 mph 1009.4mb 52f 53f
4:00 1.6ft 3s 25 31 mph 1009.3mb 52f 53f
3:00 1ft 2s 22 29 mph 1009.2mb 51f 52f
2:00 0.3ft 7s 18 22 mph 1009.3mb 52f 52f
1:00 0.3ft 3s 2 4 mph 1009.2mb 52f 51f
12:00 0.3ft 6s 7 11 mph 1008.1mb 52f 51f
11:00 0.3ft 3s 7 9 mph 1007.8mb 52f 51f
10:00 0.3ft 7s 7 9 mph 1008mb 52f 51f
9:00 0.3ft 3s 9 11 mph 1008.6mb 51f 51f
8:00 0.3ft 5s 2 4 mph 1008.8mb 51f 50f
7:00 0.3ft 2s 4
mph
1009.6mb 51f 51f
6:00 0.3ft 14s 4
mph
1010.8mb 51f 51f
5:00 0.3ft 2s 2
mph
1011.7mb 51f 50f
4:00 0.3ft 2s 7 9 mph 1012.6mb 51f 51f
3:00 0.3ft 2s 7
mph
1013.8mb 51f 52f
2:00 0.3ft 5s 4 7 mph 1014.6mb 52f 52f
1:00 0.3ft 3s 4 7 mph 1015.5mb 51f 52f
12:00 0.3ft 2s 7 9 mph 1016.5mb 52f 52f
vie 04/21 11:00 0.7ft 2s 11
mph
1017.3mb 52f 53f
10:00 0.3ft 3s 9
mph
1018.2mb 53f 53f
9:00 0.3ft 4s 11 13 mph 1018.9mb 54f 55f
8:00 0.3ft 4s 7
mph
1019.6mb 55f 55f
7:00 0.3ft 6s 4 7 mph 1020.7mb 56f 56f
6:00 0.3ft 4s 4
mph
1021.6mb 56f 55f
5:00 0.3ft 3s 4
mph
1023mb 56f 55f
4:00 0.3ft 4s 2 4 mph 1024.1mb 56f 54f
3:00 0.3ft 3s 4
mph
1025.4mb 55f 52f
2:00 0.7ft 2s 2 4 mph 1026.6mb 53f 52f
1:00 0.7ft 2s 9 11 mph 1027.5mb 52f 51f
12:00 0.7ft 2s 13 16 mph 1028.2mb 52f 50f
11:00 0.7ft 2s 11 13 mph 1028.9mb 51f 50f
10:00 0.7ft 2s 9 11 mph 1029.6mb 51f 50f
9:00 0.7ft 2s 9 13 mph 1030.1mb 50f 49f
8:00 0.7ft 2s 9 11 mph 1030.1mb 51f 49f
7:00 0.7ft 2s 9 11 mph 1030mb 51f 49f
6:00 0.3ft 2s 4 9 mph 1029.9mb 52f 48f
5:00 0.7ft 2s 9
mph
1029.7mb 51f 49f
4:00 0.7ft 2s 11 13 mph 1029.3mb 51f 49f
3:00 0.3ft 4s 9 11 mph 1029.1mb 51f 49f